Flight Track Log - Related Links

Times and Time Zones

All times are in EDT time to prevent confusion due to time zone crossing. See the AAY843 flight status page for this flight to view local times or setup timezone preferences in your user account.

Time Position Orientation Groundspeed Altitude Reporting Facility
EDT Latitude Longitude Course Direction KTS MPH feet Rate Location/Type
Fri 07:23:05 PM 43.1008 -76.0844 124° Southeast 154 177 1,300  Level Boston Center
Fri 07:23:11 PM 43.0992 -76.0811 124° Southeast 158 182 1,600 1,970 Climbing Boston Center
Fri 07:24:12 PM 43.0575 -76.0503 152° Southeast 192 221 3,500 1,983 Climbing Boston Center
Fri 07:25:09 PM 43.0228 -76.0914 221° Southwest 205 236 5,500 2,361 Climbing Boston Center
Fri 07:25:13 PM 43.0147 -76.1011 221° Southwest 214 246 5,900 2,754 Climbing Boston Center
Fri 07:26:10 PM 42.9833 -76.1539 231° Southwest 216 249 8,300 2,085 Climbing Boston Center
Fri 07:27:11 PM 42.9467 -76.2278 236° Southwest 233 268 10,000 934 Climbing Boston Center
Fri 07:28:12 PM 42.9033 -76.3092 234° Southwest 273 314 10,200 1,279 Climbing Boston Center
Fri 07:29:13 PM 42.8506 -76.4036 233° Southwest 307 353 12,600 2,146 Climbing Boston Center
Fri 07:30:15 PM 42.7631 -76.4756 211° Southwest 351 404 14,600 1,756 Climbing Boston Center
Fri 07:31:16 PM 42.6622 -76.5042 192° South 369 425 16,200 1,770 Climbing Boston Center
Fri 07:32:17 PM 42.5553 -76.5303 190° South 384 442 18,200 1,770 Climbing Boston Center
Fri 07:33:18 PM 42.4453 -76.5572 190° South 397 457 19,800 1,475 Climbing Boston Center
Fri 07:34:19 PM 42.3342 -76.5808 189° South 402 463 21,200 1,279 Climbing Boston Center
Fri 07:35:20 PM 42.2189 -76.6092 190° South 415 478 22,400 1,431 Climbing Boston Center
Fri 07:36:29 PM 42.0736 -76.6464 191° South 419 482 24,300 1,953 Climbing New York Center
Fri 07:37:29 PM 41.9597 -76.6753 191° South 419 482 26,600 1,850 Climbing New York Center
Fri 07:38:29 PM 41.8458 -76.7042 191° South 419 482 28,000 1,373 Climbing New York Center
Fri 07:39:27 PM 41.7342 -76.7331 191° South 413 475 29,300 1,210 Climbing New York Center
Fri 07:40:28 PM 41.6225 -76.7594 190° South 413 475 30,400 1,220 Climbing New York Center
Fri 07:41:30 PM 41.5108 -76.7853 190° South 413 475 31,800 793 Climbing New York Center
Fri 07:42:29 PM 41.4117 -76.8069 189° South 413 475 32,000 103 Climbing New York Center
Fri 07:43:27 PM 41.2997 -76.8356 191° South 413 475 32,000  Level New York Center
Fri 07:44:28 PM 41.1922 -76.8644 191° South 413 475 32,000  Level New York Center
Fri 07:45:29 PM 41.0675 -76.8947 190° South 413 475 32,000  Level New York Center
Fri 07:46:29 PM 40.9558 -76.9203 190° South 413 475 32,000  Level New York Center
Fri 07:47:28 PM 40.8461 -76.9461 190° South 413 475 32,000  Level New York Center
Fri 07:48:28 PM 40.7400 -76.9803 194° South 408 470 32,000  Level New York Center
Fri 07:49:29 PM 40.6336 -77.0228 197° South 408 470 32,000  Level New York Center
Fri 07:50:28 PM 40.5308 -77.0733 201° Southwest 402 463 32,000  Level New York Center
Fri 07:51:28 PM 40.4261 -77.1211 199° South 402 463 32,000  Level New York Center
Fri 07:52:28 PM 40.3217 -77.1661 198° South 402 463 32,000  Level New York Center
Fri 07:53:29 PM 40.2147 -77.2133 199° South 402 463 32,000  Level New York Center
Fri 07:55:32 PM 40.0014 -77.3086 199° South 408 470 32,000  Level Washington Center
Fri 07:56:34 PM 39.8967 -77.3519 198° South 403 464 32,000  Level Washington Center
Fri 07:57:31 PM 39.7939 -77.3956 198° South 403 464 32,000  Level Washington Center
Fri 07:58:31 PM 39.6892 -77.4414 199° South 403 464 32,000  Level Washington Center
Fri 07:59:33 PM 39.5864 -77.4872 199° South 403 464 32,000  Level Washington Center
Fri 08:00:33 PM 39.4814 -77.5328 199° South 403 464 32,000  Level Washington Center
Fri 08:01:31 PM 39.3806 -77.5786 199° South 403 464 32,000  Level Washington Center
Fri 08:02:32 PM 39.2756 -77.6239 198° South 398 458 32,000  Level Washington Center
Fri 08:03:33 PM 39.1728 -77.6664 198° South 398 458 32,000  Level Washington Center
Fri 08:04:34 PM 39.0783 -77.7039 197° South 398 458 32,000  Level Washington Center
Fri 08:05:31 PM 38.9794 -77.7492 200° South 393 452 32,000  Level Washington Center
Fri 08:06:32 PM 38.8703 -77.7939 198° South 393 452 32,000  Level Washington Center
Fri 08:07:33 PM 38.7653 -77.8389 198° South 399 459 32,000  Level Washington Center
Fri 08:08:33 PM 38.6558 -77.8858 199° South 405 466 32,000  Level Washington Center
Fri 08:09:32 PM 38.5486 -77.9331 199° South 411 473 32,000  Level Washington Center
Fri 08:10:32 PM 38.4456 -77.9881 203° Southwest 411 473 32,000  Level Washington Center
Fri 08:11:32 PM 38.3461 -78.0486 206° Southwest 406 467 32,000  Level Washington Center
Fri 08:12:33 PM 38.2447 -78.1111 206° Southwest 406 467 32,000  Level Washington Center
Fri 08:13:31 PM 38.1392 -78.1736 205° Southwest 406 467 32,000  Level Washington Center
Fri 08:14:32 PM 38.0336 -78.2308 203° Southwest 406 467 32,000  Level Washington Center
Fri 08:15:33 PM 37.9364 -78.2906 206° Southwest 400 460 32,000  Level Washington Center
Fri 08:16:31 PM 37.8203 -78.3600 205° Southwest 406 467 32,000  Level Washington Center
Fri 08:17:32 PM 37.7167 -78.4192 204° Southwest 406 467 32,000  Level Washington Center
Fri 08:18:33 PM 37.6108 -78.4781 204° Southwest 406 467 32,000  Level Washington Center
Fri 08:19:33 PM 37.5031 -78.5422 205° Southwest 411 473 32,000  Level Washington Center
Fri 08:20:31 PM 37.3972 -78.6033 205° Southwest 416 479 32,000  Level Washington Center
Fri 08:21:32 PM 37.3019 -78.6569 204° Southwest 421 484 32,000  Level Washington Center
Fri 08:22:33 PM 37.1981 -78.7181 205° Southwest 421 484 32,000  Level Washington Center
Fri 08:23:31 PM 37.0903 -78.7761 203° Southwest 426 490 32,000  Level Washington Center
Fri 08:24:32 PM 36.9819 -78.8394 205° Southwest 426 490 32,000  Level Washington Center
Fri 08:25:33 PM 36.8761 -78.8997 204° Southwest 426 490 32,000  Level Washington Center
Fri 08:26:33 PM 36.7636 -78.9675 206° Southwest 426 490 32,000  Level Washington Center
Fri 08:27:31 PM 36.7022 -79.0739 234° Southwest 380 437 32,000 300 Level Washington Center
Fri 08:28:33 PM 36.7089 -79.2036 274° West 350 403 32,600 492 Climbing Washington Center
Fri 08:29:33 PM 36.7089 -79.3306 270° West 350 403 33,000 202 Climbing Washington Center
Fri 08:30:32 PM 36.6453 -79.4361 233° Southwest 355 409 33,000 202 Level Washington Center
Fri 08:31:32 PM 36.5636 -79.5072 215° Southwest 379 436 33,400 500 Climbing Washington Center
Fri 08:32:32 PM 36.4711 -79.5903 216° Southwest 385 443 34,000 298 Climbing Washington Center
Fri 08:33:33 PM 36.3625 -79.6544 205° Southwest 403 464 34,000  Level Washington Center
Fri 08:35:10 PM 36.1700 -79.7178 195° South 415 478 34,000  Level Atlanta Center
Fri 08:36:10 PM 36.0656 -79.7772 205° Southwest 420 483 34,000  Level Atlanta Center
Fri 08:37:10 PM 35.9672 -79.8286 203° Southwest 425 489 34,000  Level Atlanta Center
Fri 08:38:10 PM 35.8628 -79.8828 203° Southwest 430 495 34,000  Level Atlanta Center
Fri 08:39:10 PM 35.7519 -79.9394 203° Southwest 430 495 34,000  Level Atlanta Center
Fri 08:40:10 PM 35.6353 -80.0042 204° Southwest 430 495 34,000  Level Atlanta Center
Fri 08:41:10 PM 35.5408 -80.0547 204° Southwest 430 495 34,000  Level Atlanta Center
Fri 08:42:10 PM 35.4344 -80.1133 204° Southwest 430 495 34,000  Level Atlanta Center
Fri 08:43:10 PM 35.3256 -80.1694 203° Southwest 430 495 34,000  Level Atlanta Center
Fri 08:44:10 PM 35.2189 -80.2253 203° Southwest 430 495 34,000  Level Atlanta Center
Fri 08:47:42 PM 34.8447 -80.4211 203° Southwest 427 491 34,000  Level Jacksonville Center
Fri 08:48:42 PM 34.7314 -80.4825 204° Southwest 416 479 34,000  Level Jacksonville Center
Fri 08:49:42 PM 34.6239 -80.5336 201° Southwest 416 479 34,000 -50 Level Jacksonville Center
Fri 08:50:42 PM 34.5164 -80.5919 204° Southwest 433 498 33,900  Descending Jacksonville Center
Fri 08:51:42 PM 34.4089 -80.6478 203° Southwest 433 498 34,000  Climbing Jacksonville Center
Fri 08:52:42 PM 34.3014 -80.7033 203° Southwest 426 490 33,900  Descending Jacksonville Center
Fri 08:53:42 PM 34.1939 -80.7586 203° Southwest 426 490 34,000 50 Climbing Jacksonville Center
Fri 08:54:42 PM 34.0842 -80.8114 202° Southwest 431 496 34,000  Level Jacksonville Center
Fri 08:55:42 PM 33.9767 -80.8692 204° Southwest 431 496 34,000  Level Jacksonville Center
Fri 08:56:42 PM 33.8692 -80.9242 203° Southwest 431 496 34,000  Level Jacksonville Center
Fri 08:57:42 PM 33.7592 -80.9789 202° Southwest 431 496 34,000  Level Jacksonville Center
Fri 08:58:42 PM 33.6600 -81.0286 203° Southwest 431 496 34,000  Level Jacksonville Center
Fri 08:59:42 PM 33.5542 -81.0831 203° Southwest 431 496 34,000 -50 Level Jacksonville Center
Fri 09:00:42 PM 33.4486 -81.1350 202° Southwest 426 490 33,900  Descending Jacksonville Center
Fri 09:01:42 PM 33.3386 -81.1869 202° Southwest 426 490 34,000 50 Climbing Jacksonville Center
Fri 09:02:42 PM 33.2308 -81.2436 204° Southwest 426 490 34,000 -50 Level Jacksonville Center
Fri 09:03:42 PM 33.1231 -81.2953 202° Southwest 426 490 33,900  Descending Jacksonville Center
Fri 09:04:42 PM 33.0108 -81.3444 200° South 426 490 34,000 50 Climbing Jacksonville Center
Fri 09:05:42 PM 32.8964 -81.3808 195° South 431 496 34,000 -50 Level Jacksonville Center
Fri 09:06:42 PM 32.7739 -81.4150 193° South 437 503 33,900  Descending Jacksonville Center
Fri 09:07:42 PM 32.6614 -81.4514 195° South 428 493 34,000 50 Climbing Jacksonville Center
Fri 09:08:42 PM 32.5325 -81.4931 195° South 428 493 34,000  Level Jacksonville Center
Fri 09:09:42 PM 32.4161 -81.5317 196° South 433 498 34,000  Level Jacksonville Center
Fri 09:10:42 PM 32.3078 -81.5603 193° South 433 498 34,000  Level Jacksonville Center
Fri 09:11:42 PM 32.1767 -81.6017 195° South 433 498 34,000  Level Jacksonville Center
Fri 09:12:42 PM 32.0706 -81.6300 193° South 438 504 34,000  Level Jacksonville Center
Fri 09:13:42 PM 31.9414 -81.6708 195° South 431 496 34,000  Level Jacksonville Center
Fri 09:14:42 PM 31.8247 -81.7067 195° South 436 502 34,000  Level Jacksonville Center
Fri 09:15:42 PM 31.7186 -81.7375 194° South 436 502 34,000  Level Jacksonville Center
Fri 09:16:42 PM 31.5894 -81.7756 194° South 436 502 34,000  Level Jacksonville Center
Fri 09:17:42 PM 31.4814 -81.8086 195° South 442 509 34,000  Level Jacksonville Center
Fri 09:18:42 PM 31.3625 -81.8414 193° South 436 502 34,000  Level Jacksonville Center
Fri 09:19:42 PM 31.2397 -81.8794 195° South 441 507 34,000  Level Jacksonville Center
Fri 09:20:42 PM 31.1231 -81.9169 195° South 441 507 34,000 -50 Level Jacksonville Center
Fri 09:21:42 PM 31.0022 -81.9522 194° South 441 507 33,900  Descending Jacksonville Center
Fri 09:22:42 PM 30.8814 -81.9847 193° South 446 513 34,000 50 Climbing Jacksonville Center
Fri 09:23:42 PM 30.7606 -82.0200 194° South 451 519 34,000  Level Jacksonville Center
Fri 09:24:42 PM 30.6397 -82.0572 195° South 451 519 34,000  Level Jacksonville Center
Fri 09:25:42 PM 30.5167 -82.0872 192° South 451 519 34,000  Level Jacksonville Center
Fri 09:26:42 PM 30.3978 -82.1219 194° South 451 519 34,000 -50 Level Jacksonville Center
Fri 09:27:42 PM 30.2747 -82.1589 195° South 451 519 33,900  Descending Jacksonville Center
Fri 09:28:42 PM 30.1561 -82.1936 194° South 451 519 34,000 -200 Climbing Jacksonville Center
Fri 09:29:42 PM 30.0372 -82.2281 194° South 451 519 33,500 -1,000 Descending Jacksonville Center
Fri 09:30:42 PM 29.9164 -82.2694 197° South 451 519 32,000 -1,850 Descending Jacksonville Center
Fri 09:31:42 PM 29.7808 -82.3086 194° South 451 519 29,800 -1,900 Descending Jacksonville Center
Fri 09:32:42 PM 29.6725 -82.3356 192° South 451 519 28,200 -1,850 Descending Jacksonville Center
Fri 09:33:42 PM 29.5514 -82.3578 189° South 451 519 26,100 -2,050 Descending Jacksonville Center
Fri 09:34:42 PM 29.4261 -82.3442 175° South 446 513 24,100 -2,000 Descending Jacksonville Center
Fri 09:35:42 PM 29.3050 -82.3258 172° South 442 509 22,100 -2,250 Descending Jacksonville Center
Fri 09:36:42 PM 29.1858 -82.3097 173° South 442 509 19,600 -2,350 Descending Jacksonville Center
Fri 09:37:42 PM 29.0711 -82.2986 175° South 431 496 17,400 -2,350 Descending Jacksonville Center
Fri 09:38:42 PM 28.9478 -82.2828 174° South 420 483 14,900 -1,950 Descending Jacksonville Center
Fri 09:39:42 PM 28.8414 -82.2717 175° South 407 468 13,500 -754 Descending Jacksonville Center
Fri 09:41:45 PM 28.6500 -82.2500 174° South 312 359 12,600 -689 Descending Tampa TRACON
Fri 09:42:45 PM 28.5667 -82.2667 190° South 312 359 11,400 -1,150 Descending Tampa TRACON
Fri 09:43:45 PM 28.5167 -82.3333 230° Southwest 281 323 10,300 -650 Descending Tampa TRACON
Fri 09:44:45 PM 28.4667 -82.4167 236° Southwest 275 316 10,100 -250 Descending Tampa TRACON
Fri 09:45:45 PM 28.4333 -82.4833 240° Southwest 278 320 9,800 -900 Descending Tampa TRACON
Fri 09:46:45 PM 28.4000 -82.5667 246° West 277 319 8,300 -1,450 Descending Tampa TRACON
Fri 09:47:45 PM 28.3333 -82.6167 213° Southwest 282 325 6,900 -1,250 Descending Tampa TRACON
Fri 09:48:45 PM 28.2833 -82.6667 221° Southwest 272 313 5,800 -1,190 Descending Tampa TRACON
Fri 09:49:46 PM 28.2167 -82.7167 213° Southwest 266 306 4,500 -843 Descending Tampa TRACON
Fri 09:50:46 PM 28.1500 -82.7333 192° South 255 293 4,100 -250 Descending Tampa TRACON
Fri 09:51:46 PM 28.0833 -82.7667 204° Southwest 258 297 4,000  Descending Tampa TRACON
Fri 09:52:46 PM 28.0167 -82.7833 192° South 222 255 4,100  Climbing Tampa TRACON
Fri 09:53:46 PM 27.9667 -82.7833 180° South 201 231 4,000 -700 Descending Tampa TRACON
Fri 09:54:46 PM 27.9000 -82.7667 168° South 200 230 2,700 -1,150 Descending Tampa TRACON
Fri 09:55:46 PM 27.8500 -82.7500 164° South 189 217 1,700 -500 Descending Tampa TRACON
Fri 09:56:46 PM 27.8333 -82.7167 119° Southeast 154 177 1,700 -400 Level Tampa TRACON
Fri 09:57:46 PM 27.8500 -82.6833 61° Northeast 150 173 900 -750 Descending Tampa TRACON
Fri 09:58:46 PM 27.9000 -82.6833 360° North 128 147 200 -700 Descending Tampa TRACON
Fri 10:00:00 PM 27.9100 -82.6875 310° West  Level Estimated
Fri 10:07:00 PM 27.9100 -82.6875 310° West  Level Estimated
Fri 10:08:00 PM 27.9100 -82.6875 310° West  Level Estimated

Login

Don't have an account? Register now (free) for customized features, flight alerts, and more!